createdAt,value
2023-04-13T00:01:12.254Z,1.37
2023-04-13T00:04:03.382Z,1.80
2023-04-13T00:06:50.569Z,1.70
2023-04-13T00:09:38.247Z,1.03
2023-04-13T00:12:26.147Z,1.47
2023-04-13T00:15:13.178Z,1.30
2023-04-13T00:17:59.921Z,1.53
2023-04-13T00:20:46.685Z,1.30
2023-04-13T00:23:33.248Z,1.60
2023-04-13T00:26:22.087Z,1.60
2023-04-13T00:29:08.352Z,1.30
2023-04-13T00:31:54.976Z,1.60
2023-04-13T00:34:41.315Z,1.23
2023-04-13T00:37:29.384Z,1.20
2023-04-13T00:40:16.777Z,1.67
2023-04-13T00:43:05.745Z,1.43
2023-04-13T00:45:52.540Z,1.70
2023-04-13T00:48:39.404Z,1.27
2023-04-13T00:51:26.190Z,1.40
2023-04-13T00:54:14.148Z,1.27
2023-04-13T00:57:00.815Z,1.47
2023-04-13T00:59:49.596Z,1.80
2023-04-13T01:02:36.162Z,1.93
2023-04-13T01:05:23.196Z,1.90
2023-04-13T01:08:12.129Z,1.57
2023-04-13T01:11:01.808Z,1.87
2023-04-13T01:13:52.196Z,2.10
2023-04-13T01:16:42.792Z,2.03
2023-04-13T01:19:35.612Z,1.80
2023-04-13T01:22:22.901Z,2.47
2023-04-13T01:25:22.799Z,2.30
2023-04-13T01:28:13.628Z,3.70
2023-04-13T01:31:01.656Z,3.77
2023-04-13T01:33:48.438Z,2.60
2023-04-13T01:36:35.267Z,3.60
2023-04-13T01:39:22.638Z,4.37
2023-04-13T01:42:08.761Z,3.80
2023-04-13T01:44:56.745Z,2.67
2023-04-13T01:47:47.216Z,3.23
2023-04-13T01:50:36.104Z,2.90
2023-04-13T01:53:25.589Z,2.73
2023-04-13T01:56:13.981Z,2.43
2023-04-13T01:59:00.305Z,2.37
2023-04-13T02:01:48.818Z,2.07
2023-04-13T02:04:35.703Z,2.30
2023-04-13T02:07:23.836Z,1.87
2023-04-13T02:10:11.024Z,1.80
2023-04-13T02:12:57.751Z,2.30
2023-04-13T02:15:44.763Z,2.60
2023-04-13T02:18:33.900Z,1.83
2023-04-13T02:21:20.173Z,2.37
2023-04-13T02:24:07.191Z,1.50
2023-04-13T02:26:53.752Z,1.60
2023-04-13T02:29:40.150Z,1.50
2023-04-13T02:32:26.631Z,1.97
2023-04-13T02:35:14.669Z,1.87
2023-04-13T02:38:01.126Z,1.50
2023-04-13T02:40:49.359Z,1.60
2023-04-13T02:43:35.831Z,1.60
2023-04-13T02:46:23.019Z,3.97
2023-04-13T02:49:10.328Z,2.83
2023-04-13T02:51:57.849Z,2.73
2023-04-13T02:54:44.514Z,3.23
2023-04-13T02:57:31.116Z,2.60
2023-04-13T03:00:18.108Z,2.40
2023-04-13T03:03:04.379Z,2.77
2023-04-13T03:05:50.863Z,2.33
2023-04-13T03:08:38.949Z,1.87
2023-04-13T03:11:26.348Z,2.77
2023-04-13T03:14:21.001Z,2.57
2023-04-13T03:17:08.362Z,2.43
2023-04-13T03:19:54.714Z,2.37
2023-04-13T03:22:41.389Z,2.23
2023-04-13T03:25:29.121Z,3.10
2023-04-13T03:28:15.958Z,2.13
2023-04-13T03:31:03.826Z,2.93
2023-04-13T03:33:51.139Z,4.27
2023-04-13T03:36:37.762Z,5.20
2023-04-13T03:39:24.024Z,6.47
2023-04-13T03:42:12.300Z,10.57
2023-04-13T03:44:58.511Z,9.13
2023-04-13T03:47:45.056Z,10.07
2023-04-13T03:50:31.488Z,6.53
2023-04-13T03:53:17.807Z,3.00
2023-04-13T03:56:04.508Z,3.60
2023-04-13T03:58:52.776Z,2.83
2023-04-13T04:01:39.341Z,3.10
2023-04-13T04:04:26.155Z,3.80
2023-04-13T04:07:13.036Z,5.47
2023-04-13T04:09:59.581Z,5.50
2023-04-13T04:12:46.166Z,5.53
2023-04-13T04:15:33.976Z,5.43
2023-04-13T04:18:20.352Z,5.63
2023-04-13T04:21:07.438Z,8.80
2023-04-13T04:23:53.743Z,10.03
2023-04-13T04:26:40.369Z,7.67
2023-04-13T04:29:34.377Z,4.63
2023-04-13T04:32:24.164Z,5.97
2023-04-13T04:35:12.270Z,7.00
2023-04-13T04:37:58.437Z,4.73
2023-04-13T04:40:46.204Z,4.70
2023-04-13T04:43:32.772Z,4.17
2023-04-13T04:46:19.281Z,3.47
2023-04-13T04:49:07.101Z,4.80
2023-04-13T04:51:53.428Z,5.23
2023-04-13T04:54:39.972Z,6.03
2023-04-13T04:57:28.468Z,5.27
2023-04-13T05:00:16.980Z,2.83
2023-04-13T05:03:03.481Z,6.30
2023-04-13T05:05:51.463Z,4.87
2023-04-13T05:08:38.052Z,4.47
2023-04-13T05:11:24.708Z,3.20
2023-04-13T05:14:11.806Z,3.70
2023-04-13T05:16:58.319Z,3.43
2023-04-13T05:19:44.686Z,4.40
2023-04-13T05:22:32.947Z,3.60
2023-04-13T05:25:19.981Z,3.53
2023-04-13T05:28:06.877Z,2.23
2023-04-13T05:30:53.353Z,3.07
2023-04-13T05:33:39.922Z,2.20
2023-04-13T05:36:26.651Z,1.80
2023-04-13T05:39:14.037Z,1.43
2023-04-13T05:42:01.377Z,1.90
2023-04-13T05:44:48.349Z,1.63
2023-04-13T05:47:35.053Z,1.20
2023-04-13T05:50:21.807Z,1.70
2023-04-13T05:53:08.783Z,1.77
2023-04-13T05:55:57.080Z,2.30
2023-04-13T05:58:43.507Z,1.50
2023-04-13T06:01:30.195Z,1.77
2023-04-13T06:04:18.181Z,1.70
2023-04-13T06:07:04.807Z,1.90
2023-04-13T06:09:51.725Z,2.03
2023-04-13T06:12:39.514Z,2.03
2023-04-13T06:15:25.882Z,1.83
2023-04-13T06:18:12.346Z,1.90
2023-04-13T06:20:59.415Z,3.50
2023-04-13T06:23:45.947Z,1.97
2023-04-13T06:26:33.311Z,2.57
2023-04-13T06:29:20.895Z,2.40
2023-04-13T06:32:07.859Z,1.90
2023-04-13T06:34:54.099Z,2.23
2023-04-13T06:37:40.847Z,2.20
2023-04-13T06:40:27.869Z,2.20
2023-04-13T06:43:26.350Z,2.13
2023-04-13T06:46:18.467Z,2.10
2023-04-13T06:49:06.514Z,2.50
2023-04-13T06:51:53.253Z,2.70
2023-04-13T06:54:40.059Z,2.53
2023-04-13T06:57:26.392Z,2.30
2023-04-13T07:00:28.183Z,2.20
2023-04-13T07:03:17.761Z,3.00
2023-04-13T07:06:04.690Z,3.07
2023-04-13T07:08:50.802Z,3.20
2023-04-13T07:11:37.474Z,2.73
2023-04-13T07:14:23.809Z,2.07
2023-04-13T07:17:12.694Z,2.23
2023-04-13T07:20:01.936Z,2.67
2023-04-13T07:22:48.331Z,2.27
2023-04-13T07:25:35.374Z,2.90
2023-04-13T07:28:23.700Z,2.07
2023-04-13T07:31:10.140Z,1.50
2023-04-13T07:33:56.401Z,1.30
2023-04-13T07:36:44.411Z,1.37
2023-04-13T07:39:30.695Z,1.60
2023-04-13T07:42:16.981Z,23.50
2023-04-13T07:45:03.400Z,2.07
2023-04-13T07:47:50.719Z,1.80
2023-04-13T07:50:41.123Z,1.50
2023-04-13T07:53:28.931Z,1.57
2023-04-13T07:56:15.654Z,1.60
2023-04-13T07:59:02.364Z,1.70
2023-04-13T08:01:49.032Z,1.40
2023-04-13T08:04:36.140Z,1.60
2023-04-13T08:07:23.264Z,1.70
2023-04-13T08:10:11.667Z,1.43
2023-04-13T08:12:57.833Z,1.20
2023-04-13T08:15:44.250Z,1.03
2023-04-13T08:18:32.313Z,1.70
2023-04-13T08:21:19.105Z,1.37
2023-04-13T08:24:06.431Z,1.70
2023-04-13T08:26:58.449Z,1.90
2023-04-13T08:29:44.730Z,1.20
2023-04-13T08:32:31.758Z,1.93
2023-04-13T08:35:18.465Z,1.60
2023-04-13T08:38:05.649Z,1.33
2023-04-13T08:40:52.565Z,1.67
2023-04-13T08:43:40.460Z,1.30
2023-04-13T08:46:26.697Z,1.33
2023-04-13T08:49:13.960Z,1.47
2023-04-13T08:52:04.950Z,1.47
2023-04-13T08:54:51.490Z,1.60
2023-04-13T08:57:40.640Z,1.77
2023-04-13T09:00:30.093Z,1.63
2023-04-13T09:03:20.734Z,1.20
2023-04-13T09:06:10.339Z,1.40
2023-04-13T09:08:57.433Z,1.40
2023-04-13T09:11:46.127Z,1.40
2023-04-13T09:14:33.668Z,1.60
2023-04-13T09:17:26.997Z,1.33
2023-04-13T09:20:14.939Z,1.30
2023-04-13T09:23:03.655Z,1.50
2023-04-13T09:25:50.896Z,1.40
2023-04-13T09:28:46.421Z,1.27
2023-04-13T09:31:34.223Z,1.47
2023-04-13T09:34:28.862Z,1.30
2023-04-13T09:37:15.476Z,3.60
2023-04-13T09:40:11.945Z,1.40
2023-04-13T09:42:59.140Z,1.00
2023-04-13T09:45:45.589Z,1.17
2023-04-13T09:48:32.190Z,1.47
2023-04-13T09:51:20.852Z,1.10
2023-04-13T09:54:08.160Z,1.10
2023-04-13T09:56:56.358Z,1.63
2023-04-13T09:59:42.856Z,1.20
2023-04-13T10:02:29.849Z,1.40
2023-04-13T10:05:16.737Z,1.10
2023-04-13T10:08:05.433Z,1.60
2023-04-13T10:10:52.404Z,0.90
2023-04-13T10:13:50.949Z,1.17
2023-04-13T10:16:44.341Z,1.00
2023-04-13T10:19:32.035Z,1.37
2023-04-13T10:22:20.327Z,1.03
2023-04-13T10:25:09.590Z,1.30
2023-04-13T10:27:59.160Z,1.30
2023-04-13T10:30:52.391Z,1.13
2023-04-13T10:33:47.924Z,1.20
2023-04-13T10:36:41.855Z,0.83
2023-04-13T10:39:28.836Z,1.00
2023-04-13T10:42:18.173Z,0.90
2023-04-13T10:45:05.146Z,0.90
2023-04-13T10:47:52.977Z,0.87
2023-04-13T10:50:39.794Z,1.23
2023-04-13T10:53:28.590Z,1.03
2023-04-13T10:56:19.117Z,1.00
2023-04-13T10:59:07.572Z,0.70
2023-04-13T11:01:54.075Z,1.23
2023-04-13T11:04:42.248Z,1.00
2023-04-13T11:07:28.949Z,1.20
2023-04-13T11:10:16.294Z,1.00
2023-04-13T11:13:02.699Z,1.00
2023-04-13T11:15:51.911Z,1.20
2023-04-13T11:18:38.276Z,1.20
2023-04-13T11:21:25.297Z,1.10
2023-04-13T11:24:12.016Z,0.93
2023-04-13T11:26:58.577Z,1.60
2023-04-13T11:29:44.846Z,1.10
2023-04-13T11:32:34.190Z,1.10
2023-04-13T11:35:21.478Z,1.23
2023-04-13T11:38:17.328Z,1.17
2023-04-13T11:41:15.579Z,0.87
2023-04-13T11:44:03.440Z,0.90
2023-04-13T11:46:52.483Z,1.20
2023-04-13T11:49:47.849Z,1.53
2023-04-13T11:52:34.778Z,1.20
2023-04-13T11:55:23.697Z,1.00
2023-04-13T11:58:11.431Z,0.90
2023-04-13T12:01:03.199Z,1.00
2023-04-13T12:04:01.606Z,1.00
2023-04-13T12:06:57.183Z,0.60
2023-04-13T12:09:56.243Z,0.83
2023-04-13T12:15:43.541Z,1.10
2023-04-13T12:18:37.351Z,1.00
2023-04-13T12:21:24.331Z,1.00
2023-04-13T12:24:12.151Z,1.00
2023-04-13T12:27:17.781Z,0.90
2023-04-13T12:30:05.462Z,0.83
2023-04-13T12:32:53.350Z,0.90
2023-04-13T12:35:40.051Z,1.33
2023-04-13T12:38:27.104Z,1.10
2023-04-13T12:41:15.309Z,1.10
2023-04-13T12:44:01.751Z,0.90
2023-04-13T12:46:48.353Z,1.00
2023-04-13T12:49:34.852Z,1.20
2023-04-13T12:52:21.273Z,1.00
2023-04-13T12:55:08.150Z,1.00
2023-04-13T12:57:56.041Z,1.30
2023-04-13T13:00:42.383Z,1.30
2023-04-13T13:03:28.988Z,1.20
2023-04-13T13:06:15.450Z,1.40
2023-04-13T13:09:02.242Z,1.30
2023-04-13T13:11:48.682Z,1.10
2023-04-13T13:14:36.724Z,1.00
2023-04-13T13:17:23.404Z,0.90
2023-04-13T13:20:10.501Z,0.77
2023-04-13T13:22:57.248Z,2.23
2023-04-13T13:25:54.236Z,1.13
2023-04-13T13:28:52.160Z,1.27
2023-04-13T13:31:41.450Z,1.27
2023-04-13T13:34:27.704Z,1.00
2023-04-13T13:37:14.338Z,1.13
2023-04-13T13:40:01.665Z,1.33
2023-04-13T13:42:52.416Z,0.97
2023-04-13T13:45:39.352Z,1.27
2023-04-13T13:48:27.170Z,1.30
2023-04-13T13:51:13.556Z,1.60
2023-04-13T13:53:59.954Z,1.53
2023-04-13T13:56:46.382Z,1.30
2023-04-13T13:59:32.611Z,1.00
2023-04-13T14:02:21.468Z,1.10
2023-04-13T14:05:13.182Z,1.37
2023-04-13T14:07:59.636Z,1.30
2023-04-13T14:10:48.613Z,1.10
2023-04-13T14:13:34.923Z,1.10
2023-04-13T14:16:21.417Z,1.30
2023-04-13T14:19:07.877Z,1.17
2023-04-13T14:21:56.708Z,1.27
2023-04-13T14:24:43.039Z,1.10
2023-04-13T14:27:29.555Z,1.10
2023-04-13T14:30:17.634Z,0.97
2023-04-13T14:33:04.454Z,1.10
2023-04-13T14:35:51.015Z,1.03
2023-04-13T14:38:38.817Z,1.70
2023-04-13T14:41:26.030Z,1.60
2023-04-13T14:44:12.309Z,1.10
2023-04-13T14:46:59.136Z,1.47
2023-04-13T14:49:46.425Z,1.30
2023-04-13T14:52:33.139Z,1.00
2023-04-13T14:55:21.294Z,0.80
2023-04-13T14:58:08.120Z,1.27
2023-04-13T15:01:13.336Z,1.13
2023-04-13T15:04:00.230Z,1.50
2023-04-13T15:06:47.751Z,1.10
2023-04-13T15:09:34.530Z,1.00
2023-04-13T15:12:22.831Z,0.90
2023-04-13T15:15:10.095Z,1.00
2023-04-13T15:17:56.744Z,0.80
2023-04-13T15:20:43.061Z,1.00
2023-04-13T15:23:43.607Z,1.37
2023-04-13T15:26:32.745Z,1.13
2023-04-13T15:29:20.606Z,0.90
2023-04-13T15:32:08.345Z,1.30
2023-04-13T15:34:56.335Z,2.00
2023-04-13T15:37:42.951Z,1.73
2023-04-13T15:40:30.518Z,4.40
2023-04-13T15:43:17.114Z,1.40
2023-04-13T15:46:05.017Z,2.50
2023-04-13T15:48:51.418Z,1.30
2023-04-13T15:51:38.005Z,1.30
2023-04-13T15:54:24.729Z,1.20
2023-04-13T15:57:11.148Z,1.67
2023-04-13T15:59:57.723Z,1.73
2023-04-13T16:02:45.757Z,1.33
2023-04-13T16:05:32.661Z,1.30
2023-04-13T16:08:19.543Z,1.60
2023-04-13T16:11:06.596Z,1.10
2023-04-13T16:13:53.725Z,1.20
2023-04-13T16:16:46.609Z,1.63
2023-04-13T16:19:34.369Z,1.67
2023-04-13T16:22:20.767Z,1.60
2023-04-13T16:25:08.096Z,1.40
2023-04-13T16:27:55.685Z,1.40
2023-04-13T16:30:42.586Z,1.73
2023-04-13T16:33:29.937Z,1.13
2023-04-13T16:36:17.737Z,1.30
2023-04-13T16:39:10.849Z,3.40
2023-04-13T16:41:58.760Z,1.37
2023-04-13T16:44:45.431Z,9.37
2023-04-13T16:47:32.962Z,40.50
2023-04-13T16:50:19.188Z,117.03
2023-04-13T16:53:07.409Z,24.33
2023-04-13T16:55:55.429Z,6.80
2023-04-13T16:58:41.603Z,7.77
2023-04-13T17:01:29.121Z,10.57
2023-04-13T17:04:15.805Z,10.33
2023-04-13T17:07:02.488Z,6.63
2023-04-13T17:09:50.310Z,17.23
2023-04-13T17:12:37.224Z,31.77
2023-04-13T17:15:23.712Z,15.83
2023-04-13T17:18:10.621Z,10.17
2023-04-13T17:21:00.251Z,19.33
2023-04-13T17:23:48.404Z,9.20
2023-04-13T17:26:36.416Z,6.40
2023-04-13T17:29:23.083Z,3.87
2023-04-13T17:32:09.866Z,2.63
2023-04-13T17:34:57.421Z,2.60
2023-04-13T17:37:43.604Z,2.17
2023-04-13T17:40:30.054Z,3.33
2023-04-13T17:43:18.048Z,6.93
2023-04-13T17:46:04.486Z,5.47
2023-04-13T17:48:50.836Z,8.13
2023-04-13T17:51:37.423Z,15.33
2023-04-13T17:54:24.696Z,66.17
2023-04-13T17:57:11.344Z,68.87
2023-04-13T17:59:58.866Z,36.00
2023-04-13T18:02:45.763Z,7.00
2023-04-13T18:05:32.684Z,4.90
2023-04-13T18:08:19.357Z,3.20
2023-04-13T18:11:05.982Z,3.20
2023-04-13T18:13:52.774Z,4.53
2023-04-13T18:16:40.708Z,4.23
2023-04-13T18:19:27.395Z,4.83
2023-04-13T18:22:14.722Z,5.37
2023-04-13T18:25:01.934Z,13.17
2023-04-13T18:27:48.756Z,8.43
2023-04-13T18:30:35.364Z,7.57
2023-04-13T18:33:23.507Z,12.17
2023-04-13T18:36:10.053Z,15.40
2023-04-13T18:38:56.452Z,7.57
2023-04-13T18:41:42.889Z,9.30
2023-04-13T18:44:29.328Z,6.87
2023-04-13T18:47:16.772Z,4.83
2023-04-13T18:50:06.202Z,4.13
2023-04-13T18:52:52.774Z,2.70
2023-04-13T18:55:39.720Z,5.37
2023-04-13T18:58:26.459Z,5.70
2023-04-13T19:01:16.937Z,31.30
2023-04-13T19:04:03.826Z,20.40
2023-04-13T19:06:52.247Z,21.37
2023-04-13T19:09:39.380Z,8.20
2023-04-13T19:12:25.912Z,10.10
2023-04-13T19:15:12.750Z,9.17
2023-04-13T19:17:59.362Z,6.23
2023-04-13T19:20:45.987Z,6.80
2023-04-13T19:23:33.978Z,4.60
2023-04-13T19:26:20.422Z,4.73
2023-04-13T19:29:07.139Z,5.80
2023-04-13T19:31:53.964Z,5.70
2023-04-13T19:34:40.213Z,5.57
2023-04-13T19:37:27.140Z,6.00
2023-04-13T19:40:15.504Z,5.63
2023-04-13T19:43:01.958Z,5.30
2023-04-13T19:45:48.285Z,7.27
2023-04-13T19:48:34.761Z,8.77
2023-04-13T19:51:21.567Z,5.57
2023-04-13T19:54:08.081Z,5.67
2023-04-13T19:56:56.047Z,7.60
2023-04-13T19:59:44.210Z,13.53
2023-04-13T20:02:30.795Z,10.40
2023-04-13T20:05:18.166Z,10.97
2023-04-13T20:08:04.369Z,14.70
2023-04-13T20:10:50.804Z,14.73
2023-04-13T20:13:38.861Z,8.93
2023-04-13T20:16:26.538Z,14.00
2023-04-13T20:19:13.181Z,21.60
2023-04-13T20:22:02.334Z,20.67
2023-04-13T20:24:49.194Z,10.60
2023-04-13T20:27:37.891Z,18.77
2023-04-13T20:30:25.866Z,12.40
2023-04-13T20:33:12.581Z,11.60
2023-04-13T20:35:58.991Z,13.00
2023-04-13T20:38:45.555Z,9.73
2023-04-13T20:41:32.634Z,8.73
2023-04-13T20:44:23.650Z,11.17
2023-04-13T20:47:13.379Z,10.87
2023-04-13T20:50:00.042Z,11.53
2023-04-13T20:52:46.981Z,9.17
2023-04-13T20:55:33.689Z,7.17
2023-04-13T20:58:20.168Z,7.43
2023-04-13T21:01:06.830Z,7.73
2023-04-13T21:03:54.917Z,7.87
2023-04-13T21:06:41.354Z,9.97
2023-04-13T21:09:27.548Z,9.93
2023-04-13T21:12:14.273Z,4.37
2023-04-13T21:15:00.745Z,4.13
2023-04-13T21:17:48.918Z,4.77
2023-04-13T21:20:36.682Z,4.23
2023-04-13T21:23:23.054Z,2.80
2023-04-13T21:26:09.446Z,2.70
2023-04-13T21:28:55.935Z,3.20
2023-04-13T21:31:42.401Z,3.60
2023-04-13T21:34:28.803Z,2.10
2023-04-13T21:37:16.615Z,2.00
2023-04-13T21:40:03.068Z,3.73
2023-04-13T21:42:49.829Z,5.27
2023-04-13T21:45:37.640Z,6.10
2023-04-13T21:48:24.275Z,6.83
2023-04-13T21:51:11.210Z,7.33
2023-04-13T21:53:59.105Z,6.47
2023-04-13T21:56:45.683Z,10.53
2023-04-13T21:59:32.168Z,6.07
2023-04-13T22:02:18.939Z,6.30
2023-04-13T22:05:05.663Z,5.43
2023-04-13T22:07:51.959Z,6.13
2023-04-13T22:10:39.808Z,5.90
2023-04-13T22:13:26.158Z,5.10
2023-04-13T22:16:12.881Z,4.80
2023-04-13T22:18:59.746Z,5.60
2023-04-13T22:21:46.214Z,6.10
2023-04-13T22:24:32.741Z,7.40
2023-04-13T22:27:20.687Z,6.37
2023-04-13T22:30:07.941Z,6.63
2023-04-13T22:32:54.149Z,8.87
2023-04-13T22:35:41.439Z,9.27
2023-04-13T22:38:27.614Z,8.83
2023-04-13T22:41:14.032Z,8.93
2023-04-13T22:44:01.724Z,6.97
2023-04-13T22:46:48.086Z,6.33
2023-04-13T22:49:34.379Z,7.67
2023-04-13T22:52:20.985Z,7.17
2023-04-13T22:55:07.555Z,8.47
2023-04-13T22:57:54.151Z,7.20
2023-04-13T23:00:42.010Z,7.43
2023-04-13T23:03:28.539Z,6.87
2023-04-13T23:06:15.207Z,7.10
2023-04-13T23:09:01.860Z,6.47
2023-04-13T23:11:48.606Z,5.60
2023-04-13T23:14:35.269Z,5.90
2023-04-13T23:17:23.335Z,5.80
2023-04-13T23:20:10.716Z,5.60
2023-04-13T23:22:57.232Z,5.80
2023-04-13T23:25:43.997Z,6.70
2023-04-13T23:28:30.393Z,7.23
2023-04-13T23:31:17.157Z,6.70
2023-04-13T23:34:05.037Z,7.07
2023-04-13T23:36:51.372Z,5.63
2023-04-13T23:39:38.423Z,6.43
2023-04-13T23:42:25.100Z,8.73
2023-04-13T23:45:11.774Z,6.63
2023-04-13T23:47:58.054Z,7.80
2023-04-13T23:50:46.097Z,7.53
2023-04-13T23:53:32.813Z,6.93
2023-04-13T23:56:19.177Z,7.90
2023-04-13T23:59:05.814Z,7.50
